sensor_id;sensor_type;location;lat;lon;timestamp;P1;durP1;ratioP1;P2;durP2;ratioP2
24206;SDS011;12351;52.284;9.160;2023-06-26T00:00:50;5.13;;;4.63;;
24206;SDS011;12351;52.284;9.160;2023-06-26T00:03:38;8.20;;;5.50;;
24206;SDS011;12351;52.284;9.160;2023-06-26T00:06:25;5.17;;;4.67;;
24206;SDS011;12351;52.284;9.160;2023-06-26T00:09:12;6.23;;;4.77;;
24206;SDS011;12351;52.284;9.160;2023-06-26T00:12:01;7.57;;;5.43;;
24206;SDS011;12351;52.284;9.160;2023-06-26T00:14:48;5.97;;;5.27;;
24206;SDS011;12351;52.284;9.160;2023-06-26T00:17:36;5.40;;;4.90;;
24206;SDS011;12351;52.284;9.160;2023-06-26T00:20:23;5.23;;;4.73;;
24206;SDS011;12351;52.284;9.160;2023-06-26T00:23:12;5.60;;;5.10;;
24206;SDS011;12351;52.284;9.160;2023-06-26T00:26:01;5.27;;;4.77;;
24206;SDS011;12351;52.284;9.160;2023-06-26T00:28:49;5.33;;;4.83;;
24206;SDS011;12351;52.284;9.160;2023-06-26T00:31:36;5.70;;;4.93;;
24206;SDS011;12351;52.284;9.160;2023-06-26T00:34:26;6.13;;;5.00;;
24206;SDS011;12351;52.284;9.160;2023-06-26T00:37:13;6.03;;;4.97;;
24206;SDS011;12351;52.284;9.160;2023-06-26T00:40:01;5.37;;;4.87;;
24206;SDS011;12351;52.284;9.160;2023-06-26T00:42:49;5.13;;;4.60;;
24206;SDS011;12351;52.284;9.160;2023-06-26T00:45:37;6.00;;;5.40;;
24206;SDS011;12351;52.284;9.160;2023-06-26T00:48:24;6.67;;;5.50;;
24206;SDS011;12351;52.284;9.160;2023-06-26T00:51:12;5.37;;;4.83;;
24206;SDS011;12351;52.284;9.160;2023-06-26T00:53:59;5.27;;;4.77;;
24206;SDS011;12351;52.284;9.160;2023-06-26T00:56:47;5.73;;;4.77;;
24206;SDS011;12351;52.284;9.160;2023-06-26T00:59:36;5.20;;;4.70;;
24206;SDS011;12351;52.284;9.160;2023-06-26T01:02:23;6.13;;;4.93;;
24206;SDS011;12351;52.284;9.160;2023-06-26T01:05:12;5.63;;;4.93;;
24206;SDS011;12351;52.284;9.160;2023-06-26T01:08:02;5.07;;;4.57;;
24206;SDS011;12351;52.284;9.160;2023-06-26T01:10:49;5.10;;;4.60;;
24206;SDS011;12351;52.284;9.160;2023-06-26T01:13:38;5.43;;;4.50;;
24206;SDS011;12351;52.284;9.160;2023-06-26T01:16:26;5.27;;;4.77;;
24206;SDS011;12351;52.284;9.160;2023-06-26T01:19:18;5.43;;;4.93;;
24206;SDS011;12351;52.284;9.160;2023-06-26T01:24:53;5.50;;;5.00;;
24206;SDS011;12351;52.284;9.160;2023-06-26T01:27:36;5.33;;;4.90;;
24206;SDS011;12351;52.284;9.160;2023-06-26T01:30:24;5.43;;;4.33;;
24206;SDS011;12351;52.284;9.160;2023-06-26T01:33:13;6.23;;;4.90;;
24206;SDS011;12351;52.284;9.160;2023-06-26T01:36:02;5.63;;;4.80;;
24206;SDS011;12351;52.284;9.160;2023-06-26T01:38:49;4.73;;;4.33;;
24206;SDS011;12351;52.284;9.160;2023-06-26T01:41:37;5.10;;;4.53;;
24206;SDS011;12351;52.284;9.160;2023-06-26T01:44:26;5.17;;;4.67;;
24206;SDS011;12351;52.284;9.160;2023-06-26T01:47:16;5.50;;;4.90;;
24206;SDS011;12351;52.284;9.160;2023-06-26T01:50:06;5.37;;;4.87;;
24206;SDS011;12351;52.284;9.160;2023-06-26T01:55:47;6.40;;;4.57;;
24206;SDS011;12351;52.284;9.160;2023-06-26T01:58:35;5.47;;;4.93;;
24206;SDS011;12351;52.284;9.160;2023-06-26T02:01:26;6.37;;;4.37;;
24206;SDS011;12351;52.284;9.160;2023-06-26T02:04:12;5.70;;;4.60;;
24206;SDS011;12351;52.284;9.160;2023-06-26T02:07:00;5.40;;;4.90;;
24206;SDS011;12351;52.284;9.160;2023-06-26T02:09:48;6.40;;;4.73;;
24206;SDS011;12351;52.284;9.160;2023-06-26T02:12:35;8.00;;;4.73;;
24206;SDS011;12351;52.284;9.160;2023-06-26T02:15:24;4.97;;;4.40;;
24206;SDS011;12351;52.284;9.160;2023-06-26T02:18:11;6.10;;;4.80;;
24206;SDS011;12351;52.284;9.160;2023-06-26T02:20:58;5.20;;;4.70;;
24206;SDS011;12351;52.284;9.160;2023-06-26T02:23:47;6.60;;;5.40;;
24206;SDS011;12351;52.284;9.160;2023-06-26T02:26:34;5.27;;;4.70;;
24206;SDS011;12351;52.284;9.160;2023-06-26T02:29:21;5.10;;;4.60;;
24206;SDS011;12351;52.284;9.160;2023-06-26T02:32:08;4.87;;;4.37;;
24206;SDS011;12351;52.284;9.160;2023-06-26T02:34:55;6.30;;;4.70;;
24206;SDS011;12351;52.284;9.160;2023-06-26T02:37:43;5.47;;;4.83;;
24206;SDS011;12351;52.284;9.160;2023-06-26T02:40:30;5.00;;;4.50;;
24206;SDS011;12351;52.284;9.160;2023-06-26T02:43:18;4.93;;;4.53;;
24206;SDS011;12351;52.284;9.160;2023-06-26T02:46:05;4.90;;;4.40;;
24206;SDS011;12351;52.284;9.160;2023-06-26T02:48:54;5.33;;;4.83;;
24206;SDS011;12351;52.284;9.160;2023-06-26T02:51:42;5.27;;;4.77;;
24206;SDS011;12351;52.284;9.160;2023-06-26T02:54:29;4.80;;;4.17;;
24206;SDS011;12351;52.284;9.160;2023-06-26T02:57:16;4.80;;;3.97;;
24206;SDS011;12351;52.284;9.160;2023-06-26T03:00:03;5.43;;;4.03;;
24206;SDS011;12351;52.284;9.160;2023-06-26T03:02:51;5.73;;;4.40;;
24206;SDS011;12351;52.284;9.160;2023-06-26T03:05:39;5.60;;;4.33;;
24206;SDS011;12351;52.284;9.160;2023-06-26T03:08:25;5.33;;;4.83;;
24206;SDS011;12351;52.284;9.160;2023-06-26T03:11:13;6.20;;;4.77;;
24206;SDS011;12351;52.284;9.160;2023-06-26T03:14:01;5.97;;;4.87;;
24206;SDS011;12351;52.284;9.160;2023-06-26T03:16:48;5.20;;;4.70;;
24206;SDS011;12351;52.284;9.160;2023-06-26T03:19:37;5.20;;;4.70;;
24206;SDS011;12351;52.284;9.160;2023-06-26T03:22:24;6.63;;;4.77;;
24206;SDS011;12351;52.284;9.160;2023-06-26T03:25:11;4.93;;;4.27;;
24206;SDS011;12351;52.284;9.160;2023-06-26T03:27:58;5.27;;;4.77;;
24206;SDS011;12351;52.284;9.160;2023-06-26T03:30:46;4.70;;;4.30;;
24206;SDS011;12351;52.284;9.160;2023-06-26T03:33:34;5.53;;;4.93;;
24206;SDS011;12351;52.284;9.160;2023-06-26T03:36:22;5.93;;;4.70;;
24206;SDS011;12351;52.284;9.160;2023-06-26T03:39:09;10.77;;;5.20;;
24206;SDS011;12351;52.284;9.160;2023-06-26T03:41:57;5.87;;;5.00;;
24206;SDS011;12351;52.284;9.160;2023-06-26T03:44:46;6.90;;;4.63;;
24206;SDS011;12351;52.284;9.160;2023-06-26T03:47:33;6.07;;;4.57;;
24206;SDS011;12351;52.284;9.160;2023-06-26T03:50:20;4.50;;;4.10;;
24206;SDS011;12351;52.284;9.160;2023-06-26T03:53:08;5.40;;;4.90;;
24206;SDS011;12351;52.284;9.160;2023-06-26T03:55:56;6.80;;;4.53;;
24206;SDS011;12351;52.284;9.160;2023-06-26T03:58:44;6.20;;;4.77;;
24206;SDS011;12351;52.284;9.160;2023-06-26T04:01:32;5.47;;;4.70;;
24206;SDS011;12351;52.284;9.160;2023-06-26T04:04:19;5.97;;;4.73;;
24206;SDS011;12351;52.284;9.160;2023-06-26T04:07:06;5.03;;;4.53;;
24206;SDS011;12351;52.284;9.160;2023-06-26T04:09:54;4.53;;;4.13;;
24206;SDS011;12351;52.284;9.160;2023-06-26T04:12:40;5.60;;;4.80;;
24206;SDS011;12351;52.284;9.160;2023-06-26T04:15:28;5.93;;;4.40;;
24206;SDS011;12351;52.284;9.160;2023-06-26T04:18:15;5.20;;;4.70;;
24206;SDS011;12351;52.284;9.160;2023-06-26T04:21:06;7.23;;;4.47;;
24206;SDS011;12351;52.284;9.160;2023-06-26T04:26:44;5.17;;;4.53;;
24206;SDS011;12351;52.284;9.160;2023-06-26T04:29:31;5.17;;;4.60;;
24206;SDS011;12351;52.284;9.160;2023-06-26T04:32:18;6.77;;;4.50;;
24206;SDS011;12351;52.284;9.160;2023-06-26T04:35:06;4.97;;;4.47;;
24206;SDS011;12351;52.284;9.160;2023-06-26T04:37:55;5.07;;;4.47;;
24206;SDS011;12351;52.284;9.160;2023-06-26T04:40:42;6.33;;;4.40;;
24206;SDS011;12351;52.284;9.160;2023-06-26T04:43:30;6.90;;;4.90;;
24206;SDS011;12351;52.284;9.160;2023-06-26T04:46:16;5.20;;;4.67;;
24206;SDS011;12351;52.284;9.160;2023-06-26T04:49:08;6.93;;;4.50;;
24206;SDS011;12351;52.284;9.160;2023-06-26T04:51:55;5.07;;;4.57;;
24206;SDS011;12351;52.284;9.160;2023-06-26T04:54:44;5.63;;;4.77;;
24206;SDS011;12351;52.284;9.160;2023-06-26T04:57:31;4.57;;;4.13;;
24206;SDS011;12351;52.284;9.160;2023-06-26T05:00:18;5.73;;;4.70;;
24206;SDS011;12351;52.284;9.160;2023-06-26T05:03:06;4.97;;;4.47;;
24206;SDS011;12351;52.284;9.160;2023-06-26T05:05:55;5.87;;;4.53;;
24206;SDS011;12351;52.284;9.160;2023-06-26T05:08:43;5.03;;;4.53;;
24206;SDS011;12351;52.284;9.160;2023-06-26T05:11:31;5.73;;;4.60;;
24206;SDS011;12351;52.284;9.160;2023-06-26T05:14:18;5.83;;;4.90;;
24206;SDS011;12351;52.284;9.160;2023-06-26T05:17:05;5.80;;;4.83;;
24206;SDS011;12351;52.284;9.160;2023-06-26T05:19:53;5.63;;;4.67;;
24206;SDS011;12351;52.284;9.160;2023-06-26T05:22:41;5.53;;;4.80;;
24206;SDS011;12351;52.284;9.160;2023-06-26T05:25:29;5.30;;;4.80;;
24206;SDS011;12351;52.284;9.160;2023-06-26T05:28:16;6.23;;;4.47;;
24206;SDS011;12351;52.284;9.160;2023-06-26T05:31:04;5.87;;;4.20;;
24206;SDS011;12351;52.284;9.160;2023-06-26T05:33:52;5.43;;;4.70;;
24206;SDS011;12351;52.284;9.160;2023-06-26T05:36:41;5.13;;;4.63;;
24206;SDS011;12351;52.284;9.160;2023-06-26T05:39:29;5.97;;;5.03;;
24206;SDS011;12351;52.284;9.160;2023-06-26T05:42:16;8.50;;;4.67;;
24206;SDS011;12351;52.284;9.160;2023-06-26T05:45:06;8.40;;;4.40;;
24206;SDS011;12351;52.284;9.160;2023-06-26T05:47:54;6.77;;;4.73;;
24206;SDS011;12351;52.284;9.160;2023-06-26T05:50:41;5.73;;;4.83;;
24206;SDS011;12351;52.284;9.160;2023-06-26T05:53:31;5.07;;;4.57;;
24206;SDS011;12351;52.284;9.160;2023-06-26T05:56:17;7.47;;;4.90;;
24206;SDS011;12351;52.284;9.160;2023-06-26T05:59:05;5.27;;;4.77;;
24206;SDS011;12351;52.284;9.160;2023-06-26T06:01:54;5.23;;;4.73;;
24206;SDS011;12351;52.284;9.160;2023-06-26T06:04:41;5.67;;;4.73;;
24206;SDS011;12351;52.284;9.160;2023-06-26T06:07:28;6.50;;;5.03;;
24206;SDS011;12351;52.284;9.160;2023-06-26T06:10:15;7.40;;;5.00;;
24206;SDS011;12351;52.284;9.160;2023-06-26T06:13:03;5.57;;;4.57;;
24206;SDS011;12351;52.284;9.160;2023-06-26T06:15:51;5.63;;;5.03;;
24206;SDS011;12351;52.284;9.160;2023-06-26T06:18:38;5.63;;;4.70;;
24206;SDS011;12351;52.284;9.160;2023-06-26T06:21:26;6.23;;;4.87;;
24206;SDS011;12351;52.284;9.160;2023-06-26T06:24:12;7.80;;;5.23;;
24206;SDS011;12351;52.284;9.160;2023-06-26T06:26:59;5.63;;;5.00;;
24206;SDS011;12351;52.284;9.160;2023-06-26T06:29:48;5.87;;;5.03;;
24206;SDS011;12351;52.284;9.160;2023-06-26T06:32:34;5.53;;;4.87;;
24206;SDS011;12351;52.284;9.160;2023-06-26T06:35:23;5.60;;;5.10;;
24206;SDS011;12351;52.284;9.160;2023-06-26T06:38:09;6.27;;;4.70;;
24206;SDS011;12351;52.284;9.160;2023-06-26T06:40:57;6.00;;;5.07;;
24206;SDS011;12351;52.284;9.160;2023-06-26T06:43:46;5.67;;;5.00;;
24206;SDS011;12351;52.284;9.160;2023-06-26T06:46:33;5.30;;;4.80;;
24206;SDS011;12351;52.284;9.160;2023-06-26T06:49:21;5.63;;;5.10;;
24206;SDS011;12351;52.284;9.160;2023-06-26T06:52:08;8.63;;;5.73;;
24206;SDS011;12351;52.284;9.160;2023-06-26T06:54:56;6.03;;;5.27;;
24206;SDS011;12351;52.284;9.160;2023-06-26T06:57:45;5.37;;;4.87;;
24206;SDS011;12351;52.284;9.160;2023-06-26T07:00:32;5.57;;;4.80;;
24206;SDS011;12351;52.284;9.160;2023-06-26T07:03:20;6.70;;;5.27;;
24206;SDS011;12351;52.284;9.160;2023-06-26T07:06:07;6.27;;;5.10;;
24206;SDS011;12351;52.284;9.160;2023-06-26T07:08:54;7.37;;;5.17;;
24206;SDS011;12351;52.284;9.160;2023-06-26T07:11:41;7.57;;;5.60;;
24206;SDS011;12351;52.284;9.160;2023-06-26T07:14:28;8.20;;;5.63;;
24206;SDS011;12351;52.284;9.160;2023-06-26T07:17:15;6.27;;;5.63;;
24206;SDS011;12351;52.284;9.160;2023-06-26T07:20:03;5.97;;;5.37;;
24206;SDS011;12351;52.284;9.160;2023-06-26T07:22:52;7.17;;;5.20;;
24206;SDS011;12351;52.284;9.160;2023-06-26T07:25:39;5.80;;;5.23;;
24206;SDS011;12351;52.284;9.160;2023-06-26T07:28:26;8.40;;;6.00;;
24206;SDS011;12351;52.284;9.160;2023-06-26T07:31:14;8.77;;;5.83;;
24206;SDS011;12351;52.284;9.160;2023-06-26T07:34:02;7.80;;;5.87;;
24206;SDS011;12351;52.284;9.160;2023-06-26T07:36:49;8.30;;;5.60;;
24206;SDS011;12351;52.284;9.160;2023-06-26T07:39:37;9.53;;;5.97;;
24206;SDS011;12351;52.284;9.160;2023-06-26T07:42:24;6.33;;;5.73;;
24206;SDS011;12351;52.284;9.160;2023-06-26T07:45:12;6.37;;;5.33;;
24206;SDS011;12351;52.284;9.160;2023-06-26T07:47:59;6.10;;;5.47;;
24206;SDS011;12351;52.284;9.160;2023-06-26T07:50:46;6.60;;;5.80;;
24206;SDS011;12351;52.284;9.160;2023-06-26T07:53:34;6.87;;;5.90;;
24206;SDS011;12351;52.284;9.160;2023-06-26T07:56:20;8.20;;;6.17;;
24206;SDS011;12351;52.284;9.160;2023-06-26T07:59:08;6.83;;;6.13;;
24206;SDS011;12351;52.284;9.160;2023-06-26T08:01:57;6.70;;;5.97;;
24206;SDS011;12351;52.284;9.160;2023-06-26T08:04:46;7.03;;;6.30;;
24206;SDS011;12351;52.284;9.160;2023-06-26T08:07:33;8.13;;;6.73;;
24206;SDS011;12351;52.284;9.160;2023-06-26T08:10:20;8.87;;;7.03;;
24206;SDS011;12351;52.284;9.160;2023-06-26T08:13:07;9.37;;;7.87;;
24206;SDS011;12351;52.284;9.160;2023-06-26T08:15:56;9.90;;;7.13;;
24206;SDS011;12351;52.284;9.160;2023-06-26T08:18:42;7.73;;;6.93;;
24206;SDS011;12351;52.284;9.160;2023-06-26T08:21:30;9.17;;;7.63;;
24206;SDS011;12351;52.284;9.160;2023-06-26T08:24:17;10.67;;;7.50;;
24206;SDS011;12351;52.284;9.160;2023-06-26T08:27:05;7.93;;;7.23;;
24206;SDS011;12351;52.284;9.160;2023-06-26T08:29:53;8.90;;;7.33;;
24206;SDS011;12351;52.284;9.160;2023-06-26T08:32:40;8.93;;;7.97;;
24206;SDS011;12351;52.284;9.160;2023-06-26T08:35:27;8.77;;;7.23;;
24206;SDS011;12351;52.284;9.160;2023-06-26T08:38:14;9.47;;;7.73;;
24206;SDS011;12351;52.284;9.160;2023-06-26T08:41:01;11.20;;;8.17;;
24206;SDS011;12351;52.284;9.160;2023-06-26T08:43:49;10.93;;;8.27;;
24206;SDS011;12351;52.284;9.160;2023-06-26T08:46:37;10.70;;;8.30;;
24206;SDS011;12351;52.284;9.160;2023-06-26T08:52:17;10.63;;;7.30;;
24206;SDS011;12351;52.284;9.160;2023-06-26T08:55:06;8.60;;;7.47;;
24206;SDS011;12351;52.284;9.160;2023-06-26T08:57:55;9.17;;;8.23;;
24206;SDS011;12351;52.284;9.160;2023-06-26T09:00:43;11.27;;;8.20;;
24206;SDS011;12351;52.284;9.160;2023-06-26T09:03:31;7.63;;;6.73;;
24206;SDS011;12351;52.284;9.160;2023-06-26T09:06:19;9.23;;;8.10;;
24206;SDS011;12351;52.284;9.160;2023-06-26T09:09:07;9.73;;;8.50;;
24206;SDS011;12351;52.284;9.160;2023-06-26T09:11:56;9.87;;;8.60;;
24206;SDS011;12351;52.284;9.160;2023-06-26T09:14:43;10.30;;;8.77;;
24206;SDS011;12351;52.284;9.160;2023-06-26T09:17:33;12.10;;;8.10;;
24206;SDS011;12351;52.284;9.160;2023-06-26T09:20:20;11.67;;;9.20;;
24206;SDS011;12351;52.284;9.160;2023-06-26T09:23:08;11.13;;;9.03;;
24206;SDS011;12351;52.284;9.160;2023-06-26T09:25:57;12.00;;;9.23;;
24206;SDS011;12351;52.284;9.160;2023-06-26T09:28:46;11.37;;;9.03;;
24206;SDS011;12351;52.284;9.160;2023-06-26T09:31:37;11.27;;;8.17;;
24206;SDS011;12351;52.284;9.160;2023-06-26T09:34:29;11.57;;;9.13;;
24206;SDS011;12351;52.284;9.160;2023-06-26T09:37:14;12.27;;;8.67;;
24206;SDS011;12351;52.284;9.160;2023-06-26T09:40:03;11.30;;;9.00;;
24206;SDS011;12351;52.284;9.160;2023-06-26T09:42:50;9.73;;;8.67;;
24206;SDS011;12351;52.284;9.160;2023-06-26T09:45:39;13.03;;;8.80;;
24206;SDS011;12351;52.284;9.160;2023-06-26T09:48:27;12.10;;;8.30;;
24206;SDS011;12351;52.284;9.160;2023-06-26T09:51:16;12.30;;;8.93;;
24206;SDS011;12351;52.284;9.160;2023-06-26T09:54:05;9.00;;;8.10;;
24206;SDS011;12351;52.284;9.160;2023-06-26T09:56:52;10.60;;;8.43;;
24206;SDS011;12351;52.284;9.160;2023-06-26T09:59:42;8.73;;;7.83;;
24206;SDS011;12351;52.284;9.160;2023-06-26T10:02:30;10.17;;;7.40;;
24206;SDS011;12351;52.284;9.160;2023-06-26T10:05:18;7.97;;;6.87;;
24206;SDS011;12351;52.284;9.160;2023-06-26T10:08:05;11.27;;;6.10;;
24206;SDS011;12351;52.284;9.160;2023-06-26T10:10:52;11.10;;;6.40;;
24206;SDS011;12351;52.284;9.160;2023-06-26T10:13:42;11.17;;;5.90;;
24206;SDS011;12351;52.284;9.160;2023-06-26T10:16:31;8.33;;;6.10;;
24206;SDS011;12351;52.284;9.160;2023-06-26T10:19:19;21.70;;;15.07;;
24206;SDS011;12351;52.284;9.160;2023-06-26T10:22:11;9.33;;;7.30;;
24206;SDS011;12351;52.284;9.160;2023-06-26T10:25:00;8.70;;;7.23;;
24206;SDS011;12351;52.284;9.160;2023-06-26T10:27:54;9.33;;;7.30;;
24206;SDS011;12351;52.284;9.160;2023-06-26T10:30:41;12.27;;;7.40;;
24206;SDS011;12351;52.284;9.160;2023-06-26T10:33:31;10.80;;;7.40;;
24206;SDS011;12351;52.284;9.160;2023-06-26T10:36:20;10.03;;;7.03;;
24206;SDS011;12351;52.284;9.160;2023-06-26T10:39:10;10.50;;;6.90;;
24206;SDS011;12351;52.284;9.160;2023-06-26T10:42:07;9.53;;;7.13;;
24206;SDS011;12351;52.284;9.160;2023-06-26T10:44:47;8.80;;;7.00;;
24206;SDS011;12351;52.284;9.160;2023-06-26T10:47:35;8.60;;;7.10;;
24206;SDS011;12351;52.284;9.160;2023-06-26T10:58:42;8.27;;;6.27;;
24206;SDS011;12351;52.284;9.160;2023-06-26T11:01:30;6.03;;;5.30;;
24206;SDS011;12351;52.284;9.160;2023-06-26T11:04:21;7.37;;;5.73;;
24206;SDS011;12351;52.284;9.160;2023-06-26T11:10:00;8.90;;;5.53;;
24206;SDS011;12351;52.284;9.160;2023-06-26T11:12:49;9.20;;;5.90;;
24206;SDS011;12351;52.284;9.160;2023-06-26T11:15:39;7.63;;;5.70;;
24206;SDS011;12351;52.284;9.160;2023-06-26T11:18:27;10.43;;;5.60;;
24206;SDS011;12351;52.284;9.160;2023-06-26T11:21:16;12.17;;;6.00;;
24206;SDS011;12351;52.284;9.160;2023-06-26T11:24:07;8.63;;;5.67;;
24206;SDS011;12351;52.284;9.160;2023-06-26T11:26:54;7.60;;;5.30;;
24206;SDS011;12351;52.284;9.160;2023-06-26T11:29:47;7.10;;;5.50;;
24206;SDS011;12351;52.284;9.160;2023-06-26T11:32:35;12.20;;;6.58;;
24206;SDS011;12351;52.284;9.160;2023-06-26T11:35:24;10.07;;;6.20;;
24206;SDS011;12351;52.284;9.160;2023-06-26T11:38:12;7.20;;;5.57;;
24206;SDS011;12351;52.284;9.160;2023-06-26T11:40:59;7.67;;;5.70;;
24206;SDS011;12351;52.284;9.160;2023-06-26T11:43:49;11.23;;;5.50;;
24206;SDS011;12351;52.284;9.160;2023-06-26T11:46:37;6.43;;;4.10;;
24206;SDS011;12351;52.284;9.160;2023-06-26T11:49:25;4.87;;;4.10;;
24206;SDS011;12351;52.284;9.160;2023-06-26T11:52:12;4.73;;;3.97;;
24206;SDS011;12351;52.284;9.160;2023-06-26T11:55:01;7.70;;;3.50;;
24206;SDS011;12351;52.284;9.160;2023-06-26T11:57:50;6.63;;;3.80;;
24206;SDS011;12351;52.284;9.160;2023-06-26T12:03:29;5.80;;;3.27;;
24206;SDS011;12351;52.284;9.160;2023-06-26T12:06:17;5.03;;;3.17;;
24206;SDS011;12351;52.284;9.160;2023-06-26T12:09:07;5.47;;;3.23;;
24206;SDS011;12351;52.284;9.160;2023-06-26T12:11:56;4.13;;;3.10;;
24206;SDS011;12351;52.284;9.160;2023-06-26T12:14:44;4.83;;;2.90;;
24206;SDS011;12351;52.284;9.160;2023-06-26T12:17:32;4.60;;;2.30;;
24206;SDS011;12351;52.284;9.160;2023-06-26T12:20:21;2.77;;;1.80;;
24206;SDS011;12351;52.284;9.160;2023-06-26T12:23:11;4.00;;;2.10;;
24206;SDS011;12351;52.284;9.160;2023-06-26T12:25:59;3.27;;;1.97;;
24206;SDS011;12351;52.284;9.160;2023-06-26T12:28:48;2.27;;;1.80;;
24206;SDS011;12351;52.284;9.160;2023-06-26T12:31:39;6.17;;;2.13;;
24206;SDS011;12351;52.284;9.160;2023-06-26T12:34:28;5.40;;;2.17;;
24206;SDS011;12351;52.284;9.160;2023-06-26T12:37:17;5.97;;;1.90;;
24206;SDS011;12351;52.284;9.160;2023-06-26T12:40:04;4.40;;;1.80;;
24206;SDS011;12351;52.284;9.160;2023-06-26T12:42:52;4.17;;;1.83;;
24206;SDS011;12351;52.284;9.160;2023-06-26T12:45:41;16.10;;;2.20;;
24206;SDS011;12351;52.284;9.160;2023-06-26T12:51:18;5.70;;;2.00;;
24206;SDS011;12351;52.284;9.160;2023-06-26T12:54:05;4.20;;;1.80;;
24206;SDS011;12351;52.284;9.160;2023-06-26T12:56:53;3.80;;;1.70;;
24206;SDS011;12351;52.284;9.160;2023-06-26T12:59:41;3.57;;;1.83;;
24206;SDS011;12351;52.284;9.160;2023-06-26T13:02:27;2.30;;;1.60;;
24206;SDS011;12351;52.284;9.160;2023-06-26T13:05:15;4.20;;;1.93;;
24206;SDS011;12351;52.284;9.160;2023-06-26T13:08:03;4.10;;;1.83;;
24206;SDS011;12351;52.284;9.160;2023-06-26T13:10:50;2.93;;;1.87;;
24206;SDS011;12351;52.284;9.160;2023-06-26T13:13:38;1.90;;;1.70;;
24206;SDS011;12351;52.284;9.160;2023-06-26T13:16:26;2.83;;;1.90;;
24206;SDS011;12351;52.284;9.160;2023-06-26T13:19:13;4.17;;;1.80;;
24206;SDS011;12351;52.284;9.160;2023-06-26T13:22:01;4.00;;;2.10;;
24206;SDS011;12351;52.284;9.160;2023-06-26T13:24:49;6.07;;;1.90;;
24206;SDS011;12351;52.284;9.160;2023-06-26T13:27:37;5.40;;;1.90;;
24206;SDS011;12351;52.284;9.160;2023-06-26T13:30:24;2.43;;;1.90;;
24206;SDS011;12351;52.284;9.160;2023-06-26T13:33:11;2.27;;;1.90;;
24206;SDS011;12351;52.284;9.160;2023-06-26T13:35:58;2.73;;;2.00;;
24206;SDS011;12351;52.284;9.160;2023-06-26T13:38:47;3.93;;;1.90;;
24206;SDS011;12351;52.284;9.160;2023-06-26T13:41:36;3.77;;;2.07;;
24206;SDS011;12351;52.284;9.160;2023-06-26T13:44:22;4.33;;;1.80;;
24206;SDS011;12351;52.284;9.160;2023-06-26T13:47:12;6.23;;;2.23;;
24206;SDS011;12351;52.284;9.160;2023-06-26T13:49:59;3.77;;;2.00;;
24206;SDS011;12351;52.284;9.160;2023-06-26T13:52:47;3.27;;;2.00;;
24206;SDS011;12351;52.284;9.160;2023-06-26T13:55:35;2.67;;;1.87;;
24206;SDS011;12351;52.284;9.160;2023-06-26T13:58:22;3.53;;;2.10;;
24206;SDS011;12351;52.284;9.160;2023-06-26T14:01:11;3.73;;;2.03;;
24206;SDS011;12351;52.284;9.160;2023-06-26T14:03:58;3.37;;;1.80;;
24206;SDS011;12351;52.284;9.160;2023-06-26T14:06:45;3.97;;;1.93;;
24206;SDS011;12351;52.284;9.160;2023-06-26T14:09:33;2.80;;;1.80;;
24206;SDS011;12351;52.284;9.160;2023-06-26T14:12:20;3.20;;;1.90;;
24206;SDS011;12351;52.284;9.160;2023-06-26T14:15:09;2.80;;;1.90;;
24206;SDS011;12351;52.284;9.160;2023-06-26T14:17:57;2.43;;;1.90;;
24206;SDS011;12351;52.284;9.160;2023-06-26T14:20:46;3.73;;;2.00;;
24206;SDS011;12351;52.284;9.160;2023-06-26T14:23:34;4.60;;;1.67;;
24206;SDS011;12351;52.284;9.160;2023-06-26T14:26:22;8.07;;;2.20;;
24206;SDS011;12351;52.284;9.160;2023-06-26T14:29:10;3.23;;;2.00;;
24206;SDS011;12351;52.284;9.160;2023-06-26T14:31:58;4.43;;;1.97;;
24206;SDS011;12351;52.284;9.160;2023-06-26T14:34:47;2.20;;;2.00;;
24206;SDS011;12351;52.284;9.160;2023-06-26T14:37:35;5.50;;;2.17;;
24206;SDS011;12351;52.284;9.160;2023-06-26T14:40:24;4.00;;;2.13;;
24206;SDS011;12351;52.284;9.160;2023-06-26T14:43:12;3.23;;;2.07;;
24206;SDS011;12351;52.284;9.160;2023-06-26T14:45:58;3.47;;;2.10;;
24206;SDS011;12351;52.284;9.160;2023-06-26T14:48:47;3.20;;;1.97;;
24206;SDS011;12351;52.284;9.160;2023-06-26T14:51:37;4.23;;;1.93;;
24206;SDS011;12351;52.284;9.160;2023-06-26T14:54:24;3.47;;;2.07;;
24206;SDS011;12351;52.284;9.160;2023-06-26T14:57:14;5.03;;;1.87;;
24206;SDS011;12351;52.284;9.160;2023-06-26T15:00:03;3.57;;;2.10;;
24206;SDS011;12351;52.284;9.160;2023-06-26T15:02:51;2.73;;;1.90;;
24206;SDS011;12351;52.284;9.160;2023-06-26T15:05:39;3.03;;;2.17;;
24206;SDS011;12351;52.284;9.160;2023-06-26T15:08:26;5.00;;;2.13;;
24206;SDS011;12351;52.284;9.160;2023-06-26T15:11:14;2.07;;;1.83;;
24206;SDS011;12351;52.284;9.160;2023-06-26T15:14:01;4.90;;;2.13;;
24206;SDS011;12351;52.284;9.160;2023-06-26T15:16:48;6.07;;;2.20;;
24206;SDS011;12351;52.284;9.160;2023-06-26T15:19:36;5.03;;;2.10;;
24206;SDS011;12351;52.284;9.160;2023-06-26T15:22:24;4.50;;;2.10;;
24206;SDS011;12351;52.284;9.160;2023-06-26T15:25:13;5.60;;;1.90;;
24206;SDS011;12351;52.284;9.160;2023-06-26T15:28:01;4.63;;;1.70;;
24206;SDS011;12351;52.284;9.160;2023-06-26T15:30:48;6.60;;;1.50;;
24206;SDS011;12351;52.284;9.160;2023-06-26T15:33:36;3.10;;;1.60;;
24206;SDS011;12351;52.284;9.160;2023-06-26T15:36:23;2.73;;;1.70;;
24206;SDS011;12351;52.284;9.160;2023-06-26T15:39:13;4.40;;;1.90;;
24206;SDS011;12351;52.284;9.160;2023-06-26T15:42:02;2.73;;;1.80;;
24206;SDS011;12351;52.284;9.160;2023-06-26T15:44:50;5.40;;;1.60;;
24206;SDS011;12351;52.284;9.160;2023-06-26T15:47:37;2.13;;;1.40;;
24206;SDS011;12351;52.284;9.160;2023-06-26T15:50:24;3.57;;;1.50;;
24206;SDS011;12351;52.284;9.160;2023-06-26T15:53:15;4.20;;;1.73;;
24206;SDS011;12351;52.284;9.160;2023-06-26T15:58:53;2.50;;;1.50;;
24206;SDS011;12351;52.284;9.160;2023-06-26T16:01:41;4.43;;;1.50;;
24206;SDS011;12351;52.284;9.160;2023-06-26T16:04:30;3.40;;;1.40;;
24206;SDS011;12351;52.284;9.160;2023-06-26T16:07:18;3.50;;;1.80;;
24206;SDS011;12351;52.284;9.160;2023-06-26T16:10:05;4.37;;;1.50;;
24206;SDS011;12351;52.284;9.160;2023-06-26T16:12:53;6.30;;;1.50;;
24206;SDS011;12351;52.284;9.160;2023-06-26T16:15:41;4.00;;;1.40;;
24206;SDS011;12351;52.284;9.160;2023-06-26T16:18:27;2.93;;;1.57;;
24206;SDS011;12351;52.284;9.160;2023-06-26T16:21:15;2.07;;;1.53;;
24206;SDS011;12351;52.284;9.160;2023-06-26T16:24:03;3.70;;;1.23;;
24206;SDS011;12351;52.284;9.160;2023-06-26T16:26:52;1.90;;;1.30;;
24206;SDS011;12351;52.284;9.160;2023-06-26T16:29:40;2.00;;;1.10;;
24206;SDS011;12351;52.284;9.160;2023-06-26T16:32:27;5.80;;;1.43;;
24206;SDS011;12351;52.284;9.160;2023-06-26T16:35:14;3.20;;;1.20;;
24206;SDS011;12351;52.284;9.160;2023-06-26T16:38:03;4.77;;;1.70;;
24206;SDS011;12351;52.284;9.160;2023-06-26T16:40:51;3.30;;;1.23;;
24206;SDS011;12351;52.284;9.160;2023-06-26T16:43:39;2.57;;;1.10;;
24206;SDS011;12351;52.284;9.160;2023-06-26T16:46:26;2.23;;;1.40;;
24206;SDS011;12351;52.284;9.160;2023-06-26T16:49:13;3.57;;;1.30;;
24206;SDS011;12351;52.284;9.160;2023-06-26T16:52:00;2.70;;;1.17;;
24206;SDS011;12351;52.284;9.160;2023-06-26T16:54:47;3.93;;;1.07;;
24206;SDS011;12351;52.284;9.160;2023-06-26T16:57:35;4.13;;;1.20;;
24206;SDS011;12351;52.284;9.160;2023-06-26T17:00:22;3.10;;;1.03;;
24206;SDS011;12351;52.284;9.160;2023-06-26T17:03:14;2.77;;;1.07;;
24206;SDS011;12351;52.284;9.160;2023-06-26T17:05:59;2.27;;;0.90;;
24206;SDS011;12351;52.284;9.160;2023-06-26T17:08:49;4.13;;;1.20;;
24206;SDS011;12351;52.284;9.160;2023-06-26T17:11:36;3.20;;;0.90;;
24206;SDS011;12351;52.284;9.160;2023-06-26T17:14:24;3.53;;;1.10;;
24206;SDS011;12351;52.284;9.160;2023-06-26T17:17:13;3.80;;;0.90;;
24206;SDS011;12351;52.284;9.160;2023-06-26T17:20:02;5.90;;;1.03;;